createdAt,value
2023-01-25T00:01:54.410Z,30.33
2023-01-25T00:04:24.094Z,31.00
2023-01-25T00:06:52.861Z,36.77
2023-01-25T00:09:30.107Z,31.40
2023-01-25T00:11:58.732Z,32.70
2023-01-25T00:14:28.513Z,32.57
2023-01-25T00:16:56.944Z,33.90
2023-01-25T00:19:25.268Z,38.43
2023-01-25T00:21:53.592Z,32.93
2023-01-25T00:24:22.987Z,33.97
2023-01-25T00:26:51.403Z,34.60
2023-01-25T00:29:19.883Z,36.27
2023-01-25T00:32:08.385Z,36.10
2023-01-25T00:34:48.508Z,33.20
2023-01-25T00:37:26.007Z,39.43
2023-01-25T00:39:54.241Z,36.40
2023-01-25T00:42:22.874Z,34.10
2023-01-25T00:44:51.210Z,36.13
2023-01-25T00:47:22.829Z,33.77
2023-01-25T00:49:51.225Z,38.63
2023-01-25T00:52:20.703Z,34.40
2023-01-25T00:54:49.046Z,33.93
2023-01-25T00:57:17.493Z,37.57
2023-01-25T00:59:47.413Z,35.00
2023-01-25T01:02:16.315Z,35.47
2023-01-25T01:04:46.203Z,33.03
2023-01-25T01:07:16.298Z,35.00
2023-01-25T01:09:44.630Z,34.20
2023-01-25T01:12:12.828Z,37.20
2023-01-25T01:14:41.089Z,33.50
2023-01-25T01:17:09.358Z,33.53
2023-01-25T01:19:37.658Z,37.60
2023-01-25T01:22:07.251Z,36.57
2023-01-25T01:24:35.484Z,41.03
2023-01-25T01:27:04.584Z,37.73
2023-01-25T01:29:33.060Z,39.37
2023-01-25T01:32:01.415Z,37.30
2023-01-25T01:34:29.765Z,36.50
2023-01-25T01:36:58.011Z,39.43
2023-01-25T01:39:27.675Z,39.00
2023-01-25T01:41:56.169Z,34.10
2023-01-25T01:44:47.826Z,38.13
2023-01-25T01:47:23.526Z,29.17
2023-01-25T01:50:02.502Z,31.47
2023-01-25T01:52:38.377Z,30.77
2023-01-25T01:55:15.493Z,31.50
2023-01-25T01:57:50.827Z,31.70
2023-01-25T02:00:23.960Z,29.70
2023-01-25T02:02:53.623Z,28.40
2023-01-25T02:05:29.463Z,31.17
2023-01-25T02:07:59.762Z,31.83
2023-01-25T02:10:31.795Z,30.90
2023-01-25T02:13:00.915Z,26.33
2023-01-25T02:15:37.590Z,29.33
2023-01-25T02:18:06.231Z,30.43
2023-01-25T02:20:39.514Z,30.10
2023-01-25T02:23:19.991Z,29.67
2023-01-25T02:25:50.339Z,29.23
2023-01-25T02:28:25.924Z,27.73
2023-01-25T02:30:54.377Z,32.57
2023-01-25T02:33:26.170Z,29.13
2023-01-25T02:36:01.422Z,29.13
2023-01-25T02:38:35.169Z,33.17
2023-01-25T02:41:11.662Z,31.40
2023-01-25T02:43:41.463Z,33.63
2023-01-25T02:46:18.975Z,29.73
2023-01-25T02:48:47.328Z,31.90
2023-01-25T02:51:15.937Z,28.00
2023-01-25T02:53:44.180Z,30.23
2023-01-25T02:56:13.834Z,31.27
2023-01-25T02:58:42.812Z,27.20
2023-01-25T03:01:11.540Z,30.03
2023-01-25T03:03:42.606Z,29.83
2023-01-25T03:06:11.603Z,27.93
2023-01-25T03:08:40.637Z,28.73
2023-01-25T03:11:10.142Z,31.63
2023-01-25T03:13:40.076Z,30.37
2023-01-25T03:16:11.125Z,32.03
2023-01-25T03:18:42.769Z,31.60
2023-01-25T03:21:14.727Z,30.57
2023-01-25T03:23:44.347Z,31.63
2023-01-25T03:26:17.835Z,32.77
2023-01-25T03:29:03.784Z,30.63
2023-01-25T03:31:32.193Z,29.83
2023-01-25T03:34:00.666Z,30.40
2023-01-25T03:36:34.107Z,31.93
2023-01-25T03:39:02.407Z,37.17
2023-01-25T03:41:30.894Z,35.33
2023-01-25T03:44:01.183Z,37.20
2023-01-25T03:46:31.188Z,35.60
2023-01-25T03:48:59.509Z,32.77
2023-01-25T03:51:27.989Z,32.83
2023-01-25T03:53:56.204Z,38.80
2023-01-25T03:56:24.481Z,35.80
2023-01-25T03:59:00.011Z,36.30
2023-01-25T04:01:30.184Z,36.37
2023-01-25T04:03:58.541Z,35.60
2023-01-25T04:06:26.890Z,36.60
2023-01-25T04:08:55.307Z,36.77
2023-01-25T04:11:26.186Z,33.97
2023-01-25T04:13:56.036Z,39.80
2023-01-25T04:16:27.188Z,37.90
2023-01-25T04:19:15.338Z,38.93
2023-01-25T04:21:44.021Z,33.50
2023-01-25T04:24:13.121Z,38.20
2023-01-25T04:26:43.424Z,34.40
2023-01-25T04:29:12.927Z,36.53
2023-01-25T04:31:41.272Z,35.30
2023-01-25T04:34:09.594Z,34.80
2023-01-25T04:36:39.255Z,31.93
2023-01-25T04:39:08.479Z,34.60
2023-01-25T04:41:38.165Z,29.63
2023-01-25T04:44:07.067Z,30.80
2023-01-25T04:46:36.608Z,34.10
2023-01-25T04:49:05.673Z,31.00
2023-01-25T04:51:34.726Z,30.37
2023-01-25T04:54:04.986Z,33.70
2023-01-25T04:56:35.453Z,29.70
2023-01-25T04:59:03.867Z,28.97
2023-01-25T05:01:34.286Z,30.20
2023-01-25T05:04:06.309Z,26.33
2023-01-25T05:06:39.716Z,29.07
2023-01-25T05:09:10.604Z,27.43
2023-01-25T05:11:39.281Z,28.73
2023-01-25T05:14:27.862Z,28.60
2023-01-25T05:16:56.489Z,27.90
2023-01-25T05:19:24.883Z,32.10
2023-01-25T05:22:01.666Z,29.57
2023-01-25T05:24:41.572Z,30.37
2023-01-25T05:27:12.302Z,30.83
2023-01-25T05:30:00.951Z,28.60
2023-01-25T05:32:50.713Z,31.70
2023-01-25T05:35:19.517Z,31.47
2023-01-25T05:37:49.582Z,32.50
2023-01-25T05:40:24.582Z,32.00
2023-01-25T05:42:56.974Z,29.43
2023-01-25T05:45:27.243Z,31.97
2023-01-25T05:47:58.569Z,29.47
2023-01-25T05:50:28.412Z,28.13
2023-01-25T05:53:02.975Z,33.07
2023-01-25T05:55:33.155Z,28.57
2023-01-25T05:58:05.752Z,29.83
2023-01-25T06:00:34.183Z,30.97
2023-01-25T06:03:03.641Z,31.00
2023-01-25T06:05:34.446Z,31.30
2023-01-25T06:08:02.810Z,29.03
2023-01-25T06:10:41.023Z,29.23
2023-01-25T06:13:09.226Z,30.70
2023-01-25T06:15:37.411Z,34.63
2023-01-25T06:18:26.020Z,26.60
2023-01-25T06:21:09.283Z,28.87
2023-01-25T06:23:38.171Z,30.17
2023-01-25T06:26:11.748Z,27.43
2023-01-25T06:28:40.894Z,30.20
2023-01-25T06:31:12.536Z,26.07
2023-01-25T06:33:42.368Z,28.23
2023-01-25T06:36:14.390Z,27.43
2023-01-25T06:38:43.370Z,27.77
2023-01-25T06:41:13.423Z,27.10
2023-01-25T06:43:41.619Z,28.63
2023-01-25T06:46:12.921Z,29.27
2023-01-25T06:48:42.855Z,29.87
2023-01-25T06:51:13.681Z,29.03
2023-01-25T06:53:44.924Z,30.97
2023-01-25T06:56:17.692Z,27.37
2023-01-25T06:58:47.136Z,26.80
2023-01-25T07:01:19.788Z,29.57
2023-01-25T07:03:50.749Z,29.70
2023-01-25T07:06:20.014Z,27.30
2023-01-25T07:08:49.122Z,28.63
2023-01-25T07:11:19.412Z,30.57
2023-01-25T07:13:48.985Z,29.63
2023-01-25T07:16:20.345Z,30.33
2023-01-25T07:18:49.055Z,31.77
2023-01-25T07:21:21.263Z,33.03
2023-01-25T07:23:50.308Z,28.90
2023-01-25T07:26:24.543Z,26.93
2023-01-25T07:28:54.050Z,31.73
2023-01-25T07:31:24.624Z,31.67
2023-01-25T07:33:54.489Z,28.90
2023-01-25T07:36:23.745Z,30.57
2023-01-25T07:38:55.169Z,31.87
2023-01-25T07:41:26.474Z,32.00
2023-01-25T07:43:55.369Z,31.70
2023-01-25T07:46:43.880Z,30.53
2023-01-25T07:49:12.099Z,34.53
2023-01-25T07:51:40.437Z,35.93
2023-01-25T07:54:11.165Z,33.50
2023-01-25T07:56:40.982Z,33.80
2023-01-25T07:59:10.887Z,34.00
2023-01-25T08:01:41.088Z,32.23
2023-01-25T08:04:10.426Z,32.10
2023-01-25T08:06:39.823Z,35.37
2023-01-25T08:09:12.987Z,34.20
2023-01-25T08:11:43.925Z,34.63
2023-01-25T08:14:12.386Z,32.53
2023-01-25T08:16:40.997Z,32.93
2023-01-25T08:19:11.911Z,34.27
2023-01-25T08:21:40.224Z,31.73
2023-01-25T08:24:09.928Z,35.77
2023-01-25T08:26:39.094Z,37.67
2023-01-25T08:29:08.698Z,33.90
2023-01-25T08:31:37.690Z,33.67
2023-01-25T08:34:07.041Z,34.17
2023-01-25T08:36:35.430Z,32.40
2023-01-25T08:39:08.136Z,33.80
2023-01-25T08:41:37.391Z,35.67
2023-01-25T08:44:06.648Z,31.90
2023-01-25T08:46:36.432Z,36.20
2023-01-25T08:49:05.505Z,32.73
2023-01-25T08:51:34.820Z,33.53
2023-01-25T08:54:05.148Z,35.30
2023-01-25T08:56:33.533Z,35.43
2023-01-25T08:59:01.790Z,36.33
2023-01-25T09:01:30.070Z,36.10
2023-01-25T09:04:00.009Z,36.17
2023-01-25T09:06:28.893Z,34.90
2023-01-25T09:08:57.130Z,37.40
2023-01-25T09:11:25.374Z,37.17
2023-01-25T09:13:53.931Z,31.87
2023-01-25T09:16:29.467Z,33.47
2023-01-25T09:19:02.277Z,34.73
2023-01-25T09:21:31.091Z,35.60
2023-01-25T09:24:08.082Z,35.40
2023-01-25T09:26:39.337Z,36.60
2023-01-25T09:29:08.628Z,35.73
2023-01-25T09:31:40.282Z,39.17
2023-01-25T09:34:20.608Z,37.53
2023-01-25T09:36:48.873Z,42.73
2023-01-25T09:39:17.158Z,39.57
2023-01-25T09:42:25.757Z,42.43
2023-01-25T09:45:28.258Z,40.53
2023-01-25T09:48:10.365Z,43.20
2023-01-25T09:50:58.169Z,44.37
2023-01-25T09:53:36.250Z,40.10
2023-01-25T09:56:13.644Z,45.53
2023-01-25T09:58:46.927Z,45.07
2023-01-25T10:01:39.048Z,48.67
2023-01-25T10:04:17.811Z,48.47
2023-01-25T10:07:00.175Z,48.07
2023-01-25T10:09:46.041Z,51.10
2023-01-25T10:12:21.417Z,58.20
2023-01-25T10:14:51.276Z,54.80
2023-01-25T10:17:31.436Z,53.67
2023-01-25T10:20:16.454Z,54.10
2023-01-25T10:22:52.141Z,52.90
2023-01-25T10:25:30.307Z,59.20
2023-01-25T10:28:25.555Z,55.37
2023-01-25T10:31:00.712Z,57.00
2023-01-25T10:33:33.758Z,57.93
2023-01-25T10:36:06.276Z,53.40
2023-01-25T10:38:42.192Z,57.47
2023-01-25T10:41:18.996Z,57.33
2023-01-25T10:43:47.280Z,59.73
2023-01-25T10:46:23.510Z,67.20
2023-01-25T10:48:52.110Z,60.10
2023-01-25T10:51:32.518Z,60.90
2023-01-25T10:54:04.781Z,62.23
2023-01-25T10:56:36.609Z,62.63
2023-01-25T10:59:18.485Z,61.27
2023-01-25T11:01:47.247Z,68.33
2023-01-25T11:04:32.797Z,62.00
2023-01-25T11:07:02.842Z,58.67
2023-01-25T11:09:36.746Z,57.27
2023-01-25T11:12:16.563Z,54.97
2023-01-25T11:14:45.556Z,57.40
2023-01-25T11:17:27.838Z,54.70
2023-01-25T11:20:20.698Z,55.13
2023-01-25T11:22:55.174Z,51.53
2023-01-25T11:25:32.612Z,49.60
2023-01-25T11:28:20.129Z,52.03
2023-01-25T11:30:50.021Z,53.97
2023-01-25T11:33:21.967Z,49.40
2023-01-25T11:36:29.265Z,53.13
2023-01-25T11:39:17.627Z,52.33
2023-01-25T11:42:07.843Z,49.40
2023-01-25T11:45:11.176Z,51.53
2023-01-25T11:48:01.134Z,50.43
2023-01-25T11:50:37.469Z,56.87
2023-01-25T11:53:43.751Z,58.53
2023-01-25T11:56:24.262Z,53.57
2023-01-25T11:59:19.059Z,55.27
2023-01-25T12:02:25.879Z,56.50
2023-01-25T12:05:21.655Z,51.07
2023-01-25T12:08:03.297Z,58.97
2023-01-25T12:10:48.290Z,51.50
2023-01-25T12:13:31.191Z,50.90
2023-01-25T12:16:28.956Z,49.67
2023-01-25T12:19:27.612Z,50.67
2023-01-25T12:22:30.289Z,51.03
2023-01-25T12:25:09.024Z,49.07
2023-01-25T12:27:59.177Z,49.57
2023-01-25T12:30:41.800Z,48.77
2023-01-25T12:33:18.464Z,45.37
2023-01-25T12:35:57.584Z,47.77
2023-01-25T12:38:36.184Z,44.63
2023-01-25T12:41:21.245Z,47.43
2023-01-25T12:43:59.042Z,44.93
2023-01-25T12:46:35.596Z,44.97
2023-01-25T12:49:18.923Z,44.47
2023-01-25T12:51:49.490Z,47.77
2023-01-25T12:54:26.333Z,49.63
2023-01-25T12:57:12.530Z,51.13
2023-01-25T12:59:55.250Z,51.17
2023-01-25T13:03:22.530Z,52.27
2023-01-25T13:06:02.046Z,48.47
2023-01-25T13:08:48.164Z,48.80
2023-01-25T13:11:23.904Z,52.83
2023-01-25T13:13:52.538Z,48.53
2023-01-25T13:16:44.811Z,54.83
2023-01-25T13:19:41.798Z,51.70
2023-01-25T13:22:13.838Z,47.00
2023-01-25T13:25:21.309Z,50.60
2023-01-25T13:27:49.587Z,49.33
2023-01-25T13:30:34.629Z,46.17
2023-01-25T13:33:06.977Z,52.57
2023-01-25T13:35:42.341Z,44.03
2023-01-25T13:38:32.181Z,48.67
2023-01-25T13:41:12.563Z,46.87
2023-01-25T13:43:51.420Z,51.93
2023-01-25T13:46:25.101Z,48.43
2023-01-25T13:49:08.109Z,47.93
2023-01-25T13:51:41.759Z,51.93
2023-01-25T13:54:18.241Z,49.20
2023-01-25T13:56:46.756Z,49.33
2023-01-25T13:59:29.244Z,53.07
2023-01-25T14:02:00.213Z,53.93
2023-01-25T14:04:30.392Z,54.13
2023-01-25T14:07:02.805Z,52.27
2023-01-25T14:09:32.379Z,52.80
2023-01-25T14:12:06.815Z,54.37
2023-01-25T14:14:36.664Z,52.90
2023-01-25T14:17:18.159Z,54.23
2023-01-25T14:19:50.172Z,50.50
2023-01-25T14:22:26.240Z,54.43
2023-01-25T14:25:14.378Z,52.80
2023-01-25T14:27:46.995Z,56.20
2023-01-25T14:30:25.107Z,54.03
2023-01-25T14:32:56.599Z,54.17
2023-01-25T14:35:49.264Z,58.67
2023-01-25T14:38:37.302Z,57.07
2023-01-25T14:41:14.952Z,57.50
2023-01-25T14:43:46.890Z,59.43
2023-01-25T14:46:28.800Z,59.23
2023-01-25T14:49:28.701Z,61.13
2023-01-25T14:52:06.063Z,61.07
2023-01-25T14:54:38.944Z,64.33
2023-01-25T14:57:33.190Z,66.20
2023-01-25T15:00:04.194Z,65.23
2023-01-25T15:02:41.136Z,63.90
2023-01-25T15:05:23.408Z,66.17
2023-01-25T15:07:54.677Z,63.50
2023-01-25T15:10:26.997Z,63.03
2023-01-25T15:13:13.577Z,72.80
2023-01-25T15:15:55.125Z,65.80
2023-01-25T15:18:47.807Z,69.87
2023-01-25T15:21:18.255Z,63.00
2023-01-25T15:23:49.014Z,63.67
2023-01-25T15:26:22.551Z,69.40
2023-01-25T15:28:56.000Z,65.90
2023-01-25T15:31:30.408Z,70.17
2023-01-25T15:34:01.338Z,66.47
2023-01-25T15:36:30.527Z,65.10
2023-01-25T15:38:58.829Z,64.83
2023-01-25T15:41:27.071Z,67.27
2023-01-25T15:43:56.639Z,63.73
2023-01-25T15:46:29.799Z,63.37
2023-01-25T15:48:58.389Z,62.37
2023-01-25T15:51:27.023Z,59.13
2023-01-25T15:53:55.274Z,55.67
2023-01-25T15:56:30.077Z,53.03
2023-01-25T15:59:01.769Z,52.77
2023-01-25T16:01:31.701Z,54.23
2023-01-25T16:04:01.700Z,55.07
2023-01-25T16:06:38.333Z,55.43
2023-01-25T16:09:19.703Z,52.40
2023-01-25T16:11:51.725Z,58.20
2023-01-25T16:14:23.588Z,57.43
2023-01-25T16:16:54.141Z,59.80
2023-01-25T16:19:25.354Z,62.67
2023-01-25T16:21:53.818Z,62.63
2023-01-25T16:24:22.309Z,63.63
2023-01-25T16:26:54.899Z,60.53
2023-01-25T16:29:25.381Z,61.20
2023-01-25T16:31:55.182Z,63.20
2023-01-25T16:34:24.110Z,62.07
2023-01-25T16:36:53.061Z,58.40
2023-01-25T16:39:23.702Z,57.27
2023-01-25T16:41:52.346Z,57.00
2023-01-25T16:44:21.201Z,54.70
2023-01-25T16:46:51.109Z,49.33
2023-01-25T16:49:24.362Z,54.47
2023-01-25T16:51:52.919Z,55.23
2023-01-25T16:54:22.066Z,56.33
2023-01-25T16:56:51.620Z,58.33
2023-01-25T16:59:23.780Z,59.27
2023-01-25T17:01:53.706Z,60.17
2023-01-25T17:04:22.026Z,62.33
2023-01-25T17:06:52.961Z,59.47
2023-01-25T17:09:24.575Z,57.47
2023-01-25T17:11:53.877Z,59.43
2023-01-25T17:14:23.680Z,59.33
2023-01-25T17:16:53.748Z,61.20
2023-01-25T17:19:22.481Z,63.53
2023-01-25T17:21:50.765Z,64.07
2023-01-25T17:24:22.248Z,65.20
2023-01-25T17:26:51.173Z,63.27
2023-01-25T17:29:19.506Z,67.50
2023-01-25T17:31:48.069Z,65.63
2023-01-25T17:34:21.746Z,73.30
2023-01-25T17:36:52.536Z,64.63
2023-01-25T17:39:22.561Z,67.37
2023-01-25T17:41:52.695Z,53.23
2023-01-25T17:44:24.447Z,69.90
2023-01-25T17:46:53.170Z,78.00
2023-01-25T17:49:23.350Z,86.83
2023-01-25T17:51:51.688Z,88.03
2023-01-25T17:54:19.977Z,92.97
2023-01-25T17:56:48.190Z,84.93
2023-01-25T17:59:16.441Z,90.03
2023-01-25T18:01:44.764Z,86.63
2023-01-25T18:04:17.415Z,88.07
2023-01-25T18:06:47.240Z,92.27
2023-01-25T18:09:15.614Z,90.40
2023-01-25T18:11:43.875Z,91.60
2023-01-25T18:14:16.803Z,88.43
2023-01-25T18:16:45.674Z,88.80
2023-01-25T18:19:14.307Z,94.40
2023-01-25T18:21:43.294Z,97.87
2023-01-25T18:24:28.432Z,88.57
2023-01-25T18:27:04.681Z,96.93
2023-01-25T18:29:46.174Z,99.57
2023-01-25T18:32:15.319Z,94.33
2023-01-25T18:34:43.618Z,111.17
2023-01-25T18:37:21.715Z,105.47
2023-01-25T18:39:53.904Z,104.27
2023-01-25T18:42:24.607Z,104.77
2023-01-25T18:44:53.153Z,90.50
2023-01-25T18:47:23.720Z,97.43
2023-01-25T18:49:54.315Z,93.33
2023-01-25T18:52:24.432Z,79.53
2023-01-25T18:54:54.741Z,83.37
2023-01-25T18:57:23.097Z,76.93
2023-01-25T18:59:51.407Z,79.10
2023-01-25T19:02:20.359Z,81.10
2023-01-25T19:04:48.531Z,83.57
2023-01-25T19:07:17.188Z,89.40
2023-01-25T19:09:47.739Z,83.63
2023-01-25T19:12:17.350Z,86.53
2023-01-25T19:14:45.527Z,87.90
2023-01-25T19:17:13.738Z,83.47
2023-01-25T19:19:44.054Z,83.00
2023-01-25T19:22:12.698Z,84.93
2023-01-25T19:24:40.903Z,82.33
2023-01-25T19:27:09.104Z,83.60
2023-01-25T19:29:38.701Z,74.83
2023-01-25T19:32:07.373Z,82.20
2023-01-25T19:34:35.621Z,83.00
2023-01-25T19:37:03.944Z,88.47
2023-01-25T19:39:32.183Z,80.03
2023-01-25T19:42:00.470Z,79.70
2023-01-25T19:44:28.757Z,77.40
2023-01-25T19:46:58.290Z,79.60
2023-01-25T19:49:26.553Z,85.33
2023-01-25T19:51:54.762Z,84.77
2023-01-25T19:54:24.110Z,86.20
2023-01-25T19:56:52.561Z,86.77
2023-01-25T19:59:24.801Z,85.13
2023-01-25T20:01:53.509Z,82.23
2023-01-25T20:04:24.993Z,81.37
2023-01-25T20:06:53.459Z,84.73
2023-01-25T20:09:24.829Z,83.87
2023-01-25T20:11:56.199Z,87.00
2023-01-25T20:14:24.810Z,92.27
2023-01-25T20:16:53.490Z,90.30
2023-01-25T20:19:23.561Z,84.60
2023-01-25T20:21:51.883Z,82.77
2023-01-25T20:24:20.217Z,84.87
2023-01-25T20:26:49.090Z,91.47
2023-01-25T20:29:17.390Z,84.77
2023-01-25T20:31:47.151Z,90.70
2023-01-25T20:34:17.728Z,88.63
2023-01-25T20:36:49.184Z,94.47
2023-01-25T20:39:19.670Z,80.40
2023-01-25T20:41:48.340Z,93.33
2023-01-25T20:44:18.598Z,82.37
2023-01-25T20:46:47.183Z,74.93
2023-01-25T20:49:18.577Z,86.50
2023-01-25T20:51:48.901Z,83.87
2023-01-25T20:54:18.109Z,78.90
2023-01-25T20:56:47.891Z,80.10
2023-01-25T20:59:17.705Z,83.63
2023-01-25T21:01:46.733Z,78.43
2023-01-25T21:04:15.260Z,83.23
2023-01-25T21:06:43.684Z,89.60
2023-01-25T21:09:13.985Z,79.67
2023-01-25T21:11:42.951Z,82.70
2023-01-25T21:14:11.196Z,88.07
2023-01-25T21:16:39.444Z,82.20
2023-01-25T21:19:08.581Z,84.63
2023-01-25T21:21:38.337Z,85.93
2023-01-25T21:24:07.862Z,87.43
2023-01-25T21:26:38.550Z,84.60
2023-01-25T21:29:08.069Z,84.57
2023-01-25T21:31:42.296Z,93.13
2023-01-25T21:34:11.597Z,84.13
2023-01-25T21:36:39.917Z,94.37
2023-01-25T21:39:08.451Z,95.10
2023-01-25T21:41:37.981Z,89.50
2023-01-25T21:44:24.197Z,95.80
2023-01-25T21:47:19.700Z,93.63
2023-01-25T21:49:58.319Z,96.57
2023-01-25T21:52:26.606Z,94.00
2023-01-25T21:54:54.784Z,100.40
2023-01-25T21:57:24.351Z,95.37
2023-01-25T21:59:54.243Z,97.77
2023-01-25T22:02:22.968Z,102.23
2023-01-25T22:04:51.291Z,102.87
2023-01-25T22:07:19.597Z,107.60
2023-01-25T22:09:49.341Z,102.13
2023-01-25T22:12:17.588Z,107.90
2023-01-25T22:14:47.147Z,110.40
2023-01-25T22:17:15.426Z,114.23
2023-01-25T22:19:43.703Z,104.23
2023-01-25T22:22:11.901Z,105.90
2023-01-25T22:24:40.108Z,98.40
2023-01-25T22:27:33.365Z,110.37
2023-01-25T22:30:05.065Z,106.73
2023-01-25T22:32:33.287Z,105.23
2023-01-25T22:35:01.562Z,97.07
2023-01-25T22:37:29.835Z,110.23
2023-01-25T22:39:58.801Z,100.63
2023-01-25T22:42:27.049Z,107.23
2023-01-25T22:44:55.265Z,108.70
2023-01-25T22:47:25.031Z,104.90
2023-01-25T22:49:53.500Z,105.93
2023-01-25T22:52:22.119Z,105.37
2023-01-25T22:54:50.852Z,111.43
2023-01-25T22:57:19.376Z,99.93
2023-01-25T22:59:47.585Z,109.50
2023-01-25T23:02:15.923Z,97.77
2023-01-25T23:04:45.863Z,104.47
2023-01-25T23:07:18.730Z,111.57
2023-01-25T23:09:51.247Z,104.90
2023-01-25T23:12:20.478Z,101.43
2023-01-25T23:14:51.209Z,110.40
2023-01-25T23:17:38.287Z,109.80
2023-01-25T23:20:12.068Z,103.00
2023-01-25T23:22:40.589Z,100.23
2023-01-25T23:25:10.712Z,100.50
2023-01-25T23:27:39.135Z,103.80
2023-01-25T23:30:09.843Z,97.50
2023-01-25T23:32:38.622Z,103.30
2023-01-25T23:35:09.142Z,94.37
2023-01-25T23:37:37.418Z,110.33
2023-01-25T23:40:08.936Z,96.13
2023-01-25T23:42:37.643Z,96.97
2023-01-25T23:45:07.296Z,93.67
2023-01-25T23:47:36.184Z,99.13
2023-01-25T23:50:05.175Z,91.30
2023-01-25T23:52:35.969Z,88.13
2023-01-25T23:55:05.039Z,94.47
2023-01-25T23:57:33.239Z,94.90
